createdAt,value
2023-02-27T00:02:22.243Z,91125.73
2023-02-27T00:04:50.741Z,91125.61
2023-02-27T00:07:18.928Z,91120.63
2023-02-27T00:09:47.196Z,91117.44
2023-02-27T00:12:15.431Z,91117.38
2023-02-27T00:14:43.612Z,91119.14
2023-02-27T00:17:11.778Z,91120.62
2023-02-27T00:19:40.228Z,91119.12
2023-02-27T00:22:08.577Z,91117.48
2023-02-27T00:24:36.783Z,91115.46
2023-02-27T00:27:05.099Z,91119.11
2023-02-27T00:29:33.325Z,91115.63
2023-02-27T00:32:01.676Z,91118.76
2023-02-27T00:34:29.937Z,91116.02
2023-02-27T00:36:58.225Z,91114.66
2023-02-27T00:39:26.475Z,91115.05
2023-02-27T00:41:54.649Z,91109.66
2023-02-27T00:44:22.890Z,91110.30
2023-02-27T00:46:51.084Z,91116.91
2023-02-27T00:49:19.969Z,91115.70
2023-02-27T00:51:48.189Z,91109.80
2023-02-27T00:54:16.483Z,91106.38
2023-02-27T00:56:44.695Z,91107.87
2023-02-27T00:59:13.105Z,91113.09
2023-02-27T01:01:41.392Z,91115.03
2023-02-27T01:04:09.655Z,91112.12
2023-02-27T01:06:37.947Z,91111.64
2023-02-27T01:09:06.132Z,91104.39
2023-02-27T01:11:34.409Z,91105.48
2023-02-27T01:14:02.660Z,91107.73
2023-02-27T01:16:31.452Z,91112.56
2023-02-27T01:18:59.821Z,91113.30
2023-02-27T01:21:28.218Z,91118.95
2023-02-27T01:23:56.636Z,91119.63
2023-02-27T01:26:25.272Z,91120.15
2023-02-27T01:28:54.932Z,91122.98
2023-02-27T01:31:23.273Z,91128.46
2023-02-27T01:33:51.598Z,91133.30
2023-02-27T01:36:20.605Z,91134.18
2023-02-27T01:38:49.722Z,91135.98
2023-02-27T01:41:18.061Z,91134.67
2023-02-27T01:44:02.912Z,91130.35
2023-02-27T01:46:32.912Z,91130.42
2023-02-27T01:49:24.291Z,91131.21
2023-02-27T01:52:02.073Z,91132.54
2023-02-27T01:54:32.407Z,91128.43
2023-02-27T01:57:07.044Z,91130.37
2023-02-27T01:59:37.664Z,91130.48
2023-02-27T02:02:12.883Z,91130.42
2023-02-27T02:04:42.078Z,91125.09
2023-02-27T02:07:14.977Z,91121.70
2023-02-27T02:09:51.970Z,91125.70
2023-02-27T02:12:25.814Z,91123.55
2023-02-27T02:14:54.002Z,91116.57
2023-02-27T02:17:40.902Z,91114.11
2023-02-27T02:20:31.000Z,91115.98
2023-02-27T02:23:31.537Z,91127.95
2023-02-27T02:26:24.793Z,91122.83
2023-02-27T02:28:58.988Z,91126.69
2023-02-27T02:31:49.404Z,91121.10
2023-02-27T02:34:45.890Z,91128.09
2023-02-27T02:37:43.444Z,91137.70
2023-02-27T02:40:11.618Z,91146.76
2023-02-27T02:42:53.393Z,91148.02
2023-02-27T02:45:34.109Z,91147.84
2023-02-27T02:48:11.229Z,91147.16
2023-02-27T02:50:48.553Z,91141.59
2023-02-27T02:53:42.755Z,91140.63
2023-02-27T02:56:23.305Z,91146.98
2023-02-27T02:59:12.994Z,91149.01
2023-02-27T03:01:57.798Z,91151.61
2023-02-27T03:04:29.543Z,91155.47
2023-02-27T03:07:08.877Z,91154.91
2023-02-27T03:10:08.524Z,91153.27
2023-02-27T03:12:41.799Z,91150.21
2023-02-27T03:15:25.759Z,91149.04
2023-02-27T03:18:22.037Z,91149.20
2023-02-27T03:20:58.923Z,91148.92
2023-02-27T03:23:40.699Z,91143.14
2023-02-27T03:26:12.558Z,91143.38
2023-02-27T03:28:50.082Z,91143.88
2023-02-27T03:31:52.001Z,91154.92
2023-02-27T03:34:40.273Z,91168.77
2023-02-27T03:37:34.427Z,91168.21
2023-02-27T03:40:12.002Z,91173.05
2023-02-27T03:42:46.372Z,91178.86
2023-02-27T03:45:47.296Z,91181.64
2023-02-27T03:48:15.679Z,91184.69
2023-02-27T03:50:44.035Z,91195.33
2023-02-27T03:53:21.817Z,91198.97
2023-02-27T03:55:52.493Z,91203.58
2023-02-27T03:58:21.256Z,91206.17
2023-02-27T04:00:49.837Z,91202.55
2023-02-27T04:03:18.537Z,91202.95
2023-02-27T04:05:47.199Z,91205.19
2023-02-27T04:08:21.770Z,91198.27
2023-02-27T04:11:23.840Z,91194.73
2023-02-27T04:13:54.979Z,91189.56
2023-02-27T04:16:49.026Z,91189.02
2023-02-27T04:19:17.150Z,91183.06
2023-02-27T04:21:54.420Z,91180.97
2023-02-27T04:24:46.215Z,91180.55
2023-02-27T04:27:26.094Z,91181.59
2023-02-27T04:30:09.594Z,91180.36
2023-02-27T04:32:43.642Z,91173.12
2023-02-27T04:35:29.380Z,91171.15
2023-02-27T04:38:39.172Z,91170.64
2023-02-27T04:41:16.078Z,91168.91
2023-02-27T04:43:45.726Z,91167.27
2023-02-27T04:46:17.198Z,91168.98
2023-02-27T04:48:58.472Z,91167.05
2023-02-27T04:51:33.330Z,91176.39
2023-02-27T04:54:09.101Z,91183.63
2023-02-27T04:56:52.817Z,91195.00
2023-02-27T04:59:28.452Z,91193.23
2023-02-27T05:02:02.195Z,91191.50
2023-02-27T05:04:36.019Z,91197.63
2023-02-27T05:07:09.536Z,91203.98
2023-02-27T05:09:58.783Z,91211.55
2023-02-27T05:12:41.576Z,91216.36
2023-02-27T05:15:58.642Z,91223.44
2023-02-27T05:18:27.401Z,91233.24
2023-02-27T05:20:58.584Z,91230.64
2023-02-27T05:23:49.797Z,91230.13
2023-02-27T05:26:36.093Z,91229.91
2023-02-27T05:29:26.816Z,91236.89
2023-02-27T05:32:04.403Z,91241.46
2023-02-27T05:34:42.926Z,91240.79
2023-02-27T05:37:23.284Z,91242.33
2023-02-27T05:39:53.354Z,91250.14
2023-02-27T05:42:31.202Z,91255.48
2023-02-27T05:45:06.506Z,91258.57
2023-02-27T05:47:40.095Z,91268.77
2023-02-27T05:50:23.392Z,91269.19
2023-02-27T05:52:54.625Z,91274.45
2023-02-27T05:55:26.707Z,91273.77
2023-02-27T05:58:05.859Z,91277.64
2023-02-27T06:00:48.438Z,91285.81
2023-02-27T06:03:16.844Z,91294.23
2023-02-27T06:05:46.225Z,91299.80
2023-02-27T06:08:14.408Z,91304.48
2023-02-27T06:10:42.646Z,91307.50
2023-02-27T06:13:10.835Z,91311.48
2023-02-27T06:15:39.098Z,91307.84
2023-02-27T06:18:07.391Z,91304.99
2023-02-27T06:20:35.680Z,91304.21
2023-02-27T06:23:03.947Z,91310.77
2023-02-27T06:25:32.503Z,91315.46
2023-02-27T06:28:00.846Z,91320.18
2023-02-27T06:30:29.390Z,91319.15
2023-02-27T06:32:57.922Z,91320.20
2023-02-27T06:35:26.158Z,91321.00
2023-02-27T06:37:54.249Z,91324.84
2023-02-27T06:40:22.885Z,91327.62
2023-02-27T06:42:51.163Z,91320.84
2023-02-27T06:45:19.721Z,91327.34
2023-02-27T06:47:47.921Z,91324.41
2023-02-27T06:50:16.221Z,91324.08
2023-02-27T06:52:44.440Z,91328.66
2023-02-27T06:55:13.257Z,91327.55
2023-02-27T06:57:41.367Z,91331.37
2023-02-27T07:00:11.963Z,91333.81
2023-02-27T07:02:40.992Z,91331.64
2023-02-27T07:05:09.679Z,91339.36
2023-02-27T07:07:38.981Z,91335.39
2023-02-27T07:10:11.907Z,91338.27
2023-02-27T07:12:41.363Z,91342.91
2023-02-27T07:15:10.214Z,91344.42
2023-02-27T07:17:38.471Z,91350.73
2023-02-27T07:20:10.693Z,91356.14
2023-02-27T07:22:40.820Z,91357.79
2023-02-27T07:25:10.135Z,91354.95
2023-02-27T07:27:38.653Z,91357.62
2023-02-27T07:30:08.279Z,91365.09
2023-02-27T07:32:36.494Z,91366.84
2023-02-27T07:35:04.988Z,91369.75
2023-02-27T07:37:33.373Z,91368.27
2023-02-27T07:40:01.567Z,91371.05
2023-02-27T07:42:30.224Z,91378.02
2023-02-27T07:44:58.394Z,91378.57
2023-02-27T07:47:27.343Z,91375.39
2023-02-27T07:49:55.484Z,91381.23
2023-02-27T07:52:24.203Z,91388.02
2023-02-27T07:54:52.647Z,91383.33
2023-02-27T07:57:20.830Z,91384.98
2023-02-27T07:59:49.038Z,91387.88
2023-02-27T08:02:17.231Z,91400.42
2023-02-27T08:04:45.500Z,91400.75
2023-02-27T08:07:13.976Z,91404.80
2023-02-27T08:09:42.149Z,91409.73
2023-02-27T08:12:10.486Z,91414.41
2023-02-27T08:14:39.003Z,91414.85
2023-02-27T08:17:07.512Z,91417.72
2023-02-27T08:19:35.680Z,91422.16
2023-02-27T08:22:03.856Z,91425.73
2023-02-27T08:24:32.032Z,91429.91
2023-02-27T08:27:00.302Z,91435.37
2023-02-27T08:29:28.650Z,91437.68
2023-02-27T08:31:56.973Z,91439.57
2023-02-27T08:34:28.573Z,91439.79
2023-02-27T08:36:56.908Z,91446.40
2023-02-27T08:39:25.321Z,91452.52
2023-02-27T08:41:53.954Z,91453.52
2023-02-27T08:44:22.212Z,91451.84
2023-02-27T08:46:50.493Z,91454.64
2023-02-27T08:49:21.545Z,91455.11
2023-02-27T08:51:50.039Z,91451.80
2023-02-27T08:54:19.122Z,91456.32
2023-02-27T08:56:48.080Z,91458.30
2023-02-27T08:59:16.505Z,91462.92
2023-02-27T09:01:44.852Z,91462.27
2023-02-27T09:04:13.108Z,91466.77
2023-02-27T09:06:41.280Z,91470.47
2023-02-27T09:09:09.630Z,91474.30
2023-02-27T09:11:38.895Z,91476.80
2023-02-27T09:14:08.785Z,91480.56
2023-02-27T09:16:37.114Z,91484.52
2023-02-27T09:19:05.903Z,91486.64
2023-02-27T09:21:34.146Z,91490.50
2023-02-27T09:24:17.161Z,91491.49
2023-02-27T09:26:48.029Z,91492.06
2023-02-27T09:29:16.604Z,91492.12
2023-02-27T09:31:45.198Z,91486.93
2023-02-27T09:34:13.538Z,91490.98
2023-02-27T09:36:41.826Z,91492.51
2023-02-27T09:39:10.320Z,91489.57
2023-02-27T09:41:51.688Z,91494.30
2023-02-27T09:44:46.155Z,91499.15
2023-02-27T09:47:28.194Z,91495.73
2023-02-27T09:50:03.784Z,91491.30
2023-02-27T09:52:35.834Z,91494.84
2023-02-27T09:55:21.770Z,91499.02
2023-02-27T09:58:06.906Z,91495.30
2023-02-27T10:00:38.404Z,91496.94
2023-02-27T10:03:28.508Z,91500.23
2023-02-27T10:06:18.500Z,91504.41
2023-02-27T10:08:53.422Z,91499.25
2023-02-27T10:11:32.796Z,91500.04
2023-02-27T10:14:29.667Z,91511.88
2023-02-27T10:16:59.376Z,91513.59
2023-02-27T10:19:32.215Z,91507.73
2023-02-27T10:22:02.417Z,91509.80
2023-02-27T10:24:37.242Z,91514.13
2023-02-27T10:27:13.941Z,91518.05
2023-02-27T10:29:42.451Z,91518.47
2023-02-27T10:32:27.930Z,91523.27
2023-02-27T10:35:34.472Z,91517.80
2023-02-27T10:38:08.258Z,91520.13
2023-02-27T10:40:39.163Z,91520.34
2023-02-27T10:43:07.496Z,91529.09
2023-02-27T10:45:37.437Z,91517.50
2023-02-27T10:48:06.903Z,91519.23
2023-02-27T10:50:40.077Z,91526.46
2023-02-27T10:53:23.517Z,91523.35
2023-02-27T10:56:02.448Z,91518.92
2023-02-27T10:58:35.000Z,91521.60
2023-02-27T11:01:09.137Z,91527.05
2023-02-27T11:03:41.558Z,91532.06
2023-02-27T11:06:21.421Z,91545.78
2023-02-27T11:09:11.348Z,91556.87
2023-02-27T11:11:39.685Z,91542.02
2023-02-27T11:14:25.205Z,91546.36
2023-02-27T11:16:55.956Z,91552.41
2023-02-27T11:19:39.107Z,91556.82
2023-02-27T11:22:13.873Z,91561.30
2023-02-27T11:24:42.525Z,91560.61
2023-02-27T11:27:31.065Z,91560.72
2023-02-27T11:30:19.929Z,91559.89
2023-02-27T11:32:50.077Z,91564.56
2023-02-27T11:35:39.735Z,91566.70
2023-02-27T11:38:18.865Z,91575.56
2023-02-27T11:41:08.464Z,91582.46
2023-02-27T11:43:57.655Z,91589.45
2023-02-27T11:46:44.293Z,91583.36
2023-02-27T11:49:35.348Z,91593.99
2023-02-27T11:52:24.026Z,91600.80
2023-02-27T11:54:59.747Z,91608.87
2023-02-27T11:57:32.827Z,91612.29
2023-02-27T12:00:16.135Z,91611.75
2023-02-27T12:02:53.373Z,91613.55
2023-02-27T12:05:32.277Z,91614.76
2023-02-27T12:08:14.892Z,91615.74
2023-02-27T12:10:52.904Z,91617.98
2023-02-27T12:13:27.490Z,91621.86
2023-02-27T12:16:13.716Z,91632.21
2023-02-27T12:18:55.231Z,91640.77
2023-02-27T12:21:40.505Z,91639.33
2023-02-27T12:24:15.081Z,91642.55
2023-02-27T12:26:46.806Z,91650.90
2023-02-27T12:29:28.735Z,91656.52
2023-02-27T12:32:23.882Z,91661.92
2023-02-27T12:35:05.529Z,91661.40
2023-02-27T12:37:33.822Z,91665.15
2023-02-27T12:40:08.020Z,91673.80
2023-02-27T12:42:57.431Z,91675.34
2023-02-27T12:45:35.241Z,91681.90
2023-02-27T12:48:22.691Z,91684.23
2023-02-27T12:51:32.259Z,91681.36
2023-02-27T12:54:22.420Z,91679.46
2023-02-27T12:57:02.935Z,91682.45
2023-02-27T12:59:58.004Z,91680.40
2023-02-27T13:02:46.216Z,91684.55
2023-02-27T13:05:18.240Z,91685.86
2023-02-27T13:08:21.280Z,91690.40
2023-02-27T13:10:54.169Z,91696.79
2023-02-27T13:13:25.073Z,91694.61
2023-02-27T13:16:05.636Z,91694.30
2023-02-27T13:18:55.848Z,91698.34
2023-02-27T13:21:23.990Z,91699.20
2023-02-27T13:24:11.099Z,91708.03
2023-02-27T13:26:57.912Z,91708.36
2023-02-27T13:29:35.062Z,91706.98
2023-02-27T13:32:44.336Z,91716.86
2023-02-27T13:35:16.017Z,91727.66
2023-02-27T13:37:56.773Z,91729.59
2023-02-27T13:40:31.227Z,91728.42
2023-02-27T13:43:20.156Z,91735.64
2023-02-27T13:45:50.697Z,91740.10
2023-02-27T13:48:34.273Z,91744.91
2023-02-27T13:51:02.734Z,91751.89
2023-02-27T13:53:31.065Z,91754.48
2023-02-27T13:56:28.147Z,91755.19
2023-02-27T13:58:57.986Z,91753.38
2023-02-27T14:01:28.877Z,91751.64
2023-02-27T14:04:03.614Z,91749.77
2023-02-27T14:06:31.976Z,91749.84
2023-02-27T14:09:12.931Z,91749.23
2023-02-27T14:11:57.075Z,91747.80
2023-02-27T14:14:40.261Z,91749.14
2023-02-27T14:17:12.136Z,91750.77
2023-02-27T14:19:40.383Z,91749.32
2023-02-27T14:22:11.616Z,91750.15
2023-02-27T14:24:59.995Z,91747.56
2023-02-27T14:27:43.727Z,91750.40
2023-02-27T14:30:26.962Z,91752.20
2023-02-27T14:32:57.384Z,91752.96
2023-02-27T14:35:27.911Z,91756.70
2023-02-27T14:37:56.447Z,91756.85
2023-02-27T14:40:33.132Z,91754.25
2023-02-27T14:43:15.171Z,91760.55
2023-02-27T14:45:43.494Z,91766.09
2023-02-27T14:48:19.773Z,91772.77
2023-02-27T14:50:53.852Z,91778.73
2023-02-27T14:53:25.441Z,91782.94
2023-02-27T14:55:56.644Z,91780.47
2023-02-27T14:58:26.338Z,91783.65
2023-02-27T15:01:10.012Z,91791.03
2023-02-27T15:03:42.221Z,91794.87
2023-02-27T15:06:34.168Z,91798.40
2023-02-27T15:09:03.140Z,91809.25
2023-02-27T15:11:31.442Z,91818.47
2023-02-27T15:14:03.009Z,91818.22
2023-02-27T15:16:38.013Z,91824.34
2023-02-27T15:19:21.134Z,91832.21
2023-02-27T15:22:03.352Z,91839.47
2023-02-27T15:24:49.178Z,91838.00
2023-02-27T15:27:22.845Z,91839.00
2023-02-27T15:29:55.026Z,91845.92
2023-02-27T15:32:26.505Z,91848.86
2023-02-27T15:34:57.413Z,91852.60
2023-02-27T15:37:29.068Z,91862.35
2023-02-27T15:39:58.630Z,91865.24
2023-02-27T15:42:35.100Z,91871.59
2023-02-27T15:45:06.410Z,91874.36
2023-02-27T15:47:36.121Z,91880.92
2023-02-27T15:50:16.734Z,91884.14
2023-02-27T15:52:54.840Z,91893.55
2023-02-27T15:55:30.912Z,91895.27
2023-02-27T15:58:11.160Z,91896.09
2023-02-27T16:00:39.424Z,91903.27
2023-02-27T16:03:09.429Z,91907.31
2023-02-27T16:05:41.702Z,91910.18
2023-02-27T16:08:18.388Z,91917.89
2023-02-27T16:10:47.650Z,91923.92
2023-02-27T16:13:25.183Z,91925.29
2023-02-27T16:16:04.367Z,91925.64
2023-02-27T16:18:46.549Z,91930.30
2023-02-27T16:21:24.078Z,91930.95
2023-02-27T16:23:54.091Z,91939.64
2023-02-27T16:26:32.118Z,91946.11
2023-02-27T16:29:04.216Z,91951.19
2023-02-27T16:31:41.101Z,91957.09
2023-02-27T16:34:26.109Z,91964.39
2023-02-27T16:37:03.558Z,91968.05
2023-02-27T16:39:32.892Z,91964.57
2023-02-27T16:42:02.353Z,91966.08
2023-02-27T16:44:30.689Z,91960.15
2023-02-27T16:46:59.090Z,91966.02
2023-02-27T16:49:32.032Z,91970.49
2023-02-27T16:52:03.477Z,91973.46
2023-02-27T16:54:31.918Z,91974.41
2023-02-27T16:57:00.148Z,91980.98
2023-02-27T16:59:40.554Z,91985.24
2023-02-27T17:02:13.429Z,91988.14
2023-02-27T17:04:44.527Z,91983.91
2023-02-27T17:07:18.155Z,91986.57
2023-02-27T17:09:47.527Z,91988.27
2023-02-27T17:12:15.827Z,91991.67
2023-02-27T17:14:44.009Z,91991.29
2023-02-27T17:17:12.303Z,91993.62
2023-02-27T17:19:40.962Z,91995.34
2023-02-27T17:22:09.531Z,91997.08
2023-02-27T17:24:39.054Z,92000.48
2023-02-27T17:27:07.949Z,92003.06
2023-02-27T17:29:38.836Z,91998.30
2023-02-27T17:32:07.129Z,91995.58
2023-02-27T17:34:35.929Z,91998.93
2023-02-27T17:37:04.559Z,91999.98
2023-02-27T17:39:33.610Z,91997.69
2023-02-27T17:42:01.826Z,91997.45
2023-02-27T17:44:30.151Z,91993.20
2023-02-27T17:46:58.382Z,92004.64
2023-02-27T17:49:26.621Z,92001.36
2023-02-27T17:51:54.947Z,92005.75
2023-02-27T17:54:23.093Z,92012.34
2023-02-27T17:56:51.425Z,92013.33
2023-02-27T17:59:19.610Z,92011.07
2023-02-27T18:01:47.908Z,92011.05
2023-02-27T18:04:17.653Z,92011.95
2023-02-27T18:06:45.880Z,92014.58
2023-02-27T18:09:14.095Z,92022.10
2023-02-27T18:11:42.752Z,92020.11
2023-02-27T18:14:11.124Z,92026.04
2023-02-27T18:16:39.420Z,92030.10
2023-02-27T18:19:07.706Z,92035.66
2023-02-27T18:21:36.046Z,92031.92
2023-02-27T18:24:04.739Z,92030.25
2023-02-27T18:26:33.525Z,92037.27
2023-02-27T18:29:05.568Z,92050.01
2023-02-27T18:31:37.170Z,92061.20
2023-02-27T18:34:06.701Z,92062.45
2023-02-27T18:36:35.415Z,92060.83
2023-02-27T18:39:05.200Z,92058.98
2023-02-27T18:41:33.987Z,92053.00
2023-02-27T18:44:02.562Z,92051.30
2023-02-27T18:46:31.307Z,92043.57
2023-02-27T18:48:59.945Z,92047.89
2023-02-27T18:51:28.334Z,92058.00
2023-02-27T18:53:56.943Z,92055.98
2023-02-27T18:56:26.745Z,92055.02
2023-02-27T18:58:58.244Z,92064.77
2023-02-27T19:01:30.365Z,92069.11
2023-02-27T19:04:03.965Z,92072.67
2023-02-27T19:06:42.241Z,92076.35
2023-02-27T19:09:13.260Z,92075.67
2023-02-27T19:11:42.433Z,92075.10
2023-02-27T19:14:16.175Z,92072.80
2023-02-27T19:16:46.280Z,92076.43
2023-02-27T19:19:15.373Z,92082.38
2023-02-27T19:21:44.598Z,92080.38
2023-02-27T19:24:14.405Z,92081.61
2023-02-27T19:26:42.665Z,92081.49
2023-02-27T19:29:11.331Z,92079.52
2023-02-27T19:31:39.769Z,92078.00
2023-02-27T19:34:08.268Z,92071.44
2023-02-27T19:36:36.827Z,92070.08
2023-02-27T19:39:05.140Z,92079.67
2023-02-27T19:41:33.752Z,92085.02
2023-02-27T19:44:02.274Z,92093.23
2023-02-27T19:46:33.894Z,92094.98
2023-02-27T19:49:05.220Z,92096.22
2023-02-27T19:51:33.524Z,92095.05
2023-02-27T19:54:01.860Z,92097.41
2023-02-27T19:56:31.193Z,92096.90
2023-02-27T19:59:01.012Z,92095.35
2023-02-27T20:01:32.712Z,92098.56
2023-02-27T20:04:02.053Z,92103.38
2023-02-27T20:06:33.369Z,92112.58
2023-02-27T20:09:01.576Z,92113.25
2023-02-27T20:11:31.372Z,92113.88
2023-02-27T20:14:00.181Z,92118.31
2023-02-27T20:16:30.776Z,92125.33
2023-02-27T20:18:59.384Z,92126.41
2023-02-27T20:21:29.002Z,92130.19
2023-02-27T20:23:58.476Z,92129.13
2023-02-27T20:26:31.795Z,92134.39
2023-02-27T20:29:06.110Z,92140.02
2023-02-27T20:31:36.203Z,92137.14
2023-02-27T20:34:06.248Z,92135.54
2023-02-27T20:36:35.748Z,92133.54
2023-02-27T20:39:05.905Z,92128.45
2023-02-27T20:41:37.116Z,92131.33
2023-02-27T20:44:05.591Z,92128.52
2023-02-27T20:46:34.502Z,92126.11
2023-02-27T20:49:04.628Z,92121.58
2023-02-27T20:51:38.493Z,92126.04
2023-02-27T20:54:10.139Z,92133.02
2023-02-27T20:56:41.479Z,92134.85
2023-02-27T20:59:14.605Z,92138.75
2023-02-27T21:01:47.322Z,92139.61
2023-02-27T21:04:15.638Z,92144.17
2023-02-27T21:06:46.337Z,92146.36
2023-02-27T21:09:15.472Z,92150.46
2023-02-27T21:11:43.729Z,92151.27
2023-02-27T21:14:12.686Z,92154.11
2023-02-27T21:16:41.009Z,92153.10
2023-02-27T21:19:09.478Z,92150.73
2023-02-27T21:21:38.003Z,92155.22
2023-02-27T21:24:06.677Z,92155.52
2023-02-27T21:26:38.340Z,92155.46
2023-02-27T21:29:13.362Z,92158.80
2023-02-27T21:31:45.202Z,92163.05
2023-02-27T21:34:16.309Z,92160.55
2023-02-27T21:36:45.660Z,92161.88
2023-02-27T21:39:26.076Z,92164.94
2023-02-27T21:41:55.427Z,92166.85
2023-02-27T21:44:25.316Z,92168.39
2023-02-27T21:46:54.646Z,92166.33
2023-02-27T21:49:27.950Z,92169.19
2023-02-27T21:51:56.308Z,92175.19
2023-02-27T21:54:24.728Z,92177.19
2023-02-27T21:56:53.027Z,92175.39
2023-02-27T21:59:21.893Z,92171.55
2023-02-27T22:01:50.856Z,92168.41
2023-02-27T22:04:20.644Z,92171.46
2023-02-27T22:06:50.480Z,92171.13
2023-02-27T22:09:19.721Z,92174.42
2023-02-27T22:11:48.703Z,92176.38
2023-02-27T22:14:17.103Z,92170.30
2023-02-27T22:16:45.419Z,92172.88
2023-02-27T22:19:19.953Z,92173.83
2023-02-27T22:21:48.543Z,92174.55
2023-02-27T22:24:16.775Z,92174.50
2023-02-27T22:26:45.886Z,92177.59
2023-02-27T22:29:14.392Z,92181.25
2023-02-27T22:31:43.693Z,92181.57
2023-02-27T22:34:18.116Z,92179.32
2023-02-27T22:36:52.790Z,92186.50
2023-02-27T22:39:21.573Z,92190.25
2023-02-27T22:41:50.102Z,92196.84
2023-02-27T22:44:18.599Z,92200.34
2023-02-27T22:46:49.279Z,92200.78
2023-02-27T22:49:21.228Z,92203.16
2023-02-27T22:51:51.701Z,92213.01
2023-02-27T22:54:22.470Z,92211.09
2023-02-27T22:56:53.209Z,92211.11
2023-02-27T22:59:22.258Z,92206.83
2023-02-27T23:01:52.580Z,92203.95
2023-02-27T23:04:22.374Z,92201.80
2023-02-27T23:06:52.805Z,92201.12
2023-02-27T23:09:24.536Z,92199.68
2023-02-27T23:11:54.314Z,92195.07
2023-02-27T23:14:23.159Z,92195.41
2023-02-27T23:16:51.488Z,92197.09
2023-02-27T23:19:21.923Z,92210.59
2023-02-27T23:21:50.173Z,92210.92
2023-02-27T23:24:19.492Z,92214.23
2023-02-27T23:26:49.855Z,92211.23
2023-02-27T23:29:18.635Z,92216.69
2023-02-27T23:31:47.150Z,92228.52
2023-02-27T23:34:16.638Z,92230.14
2023-02-27T23:36:44.804Z,92239.08
2023-02-27T23:39:12.956Z,92243.02
2023-02-27T23:41:41.140Z,92249.77
2023-02-27T23:44:09.353Z,92249.61
2023-02-27T23:46:38.193Z,92251.15
2023-02-27T23:49:06.645Z,92252.31
2023-02-27T23:51:35.264Z,92252.19
2023-02-27T23:54:03.899Z,92257.56
2023-02-27T23:56:32.165Z,92266.91
2023-02-27T23:59:03.704Z,92265.64
